sensor_id;sensor_type;location;lat;lon;timestamp;pressure;altitude;pressure_sealevel;temperature;humidity
70338;BME280;57757;53.198;19.646;2022-10-16T00:01:43;100078.30;;;14.47;67.98
70338;BME280;57757;53.198;19.646;2022-10-16T00:04:10;100082.00;;;14.46;68.03
70338;BME280;57757;53.198;19.646;2022-10-16T00:06:38;100082.36;;;14.46;67.92
70338;BME280;57757;53.198;19.646;2022-10-16T00:09:07;100083.71;;;14.47;68.03
70338;BME280;57757;53.198;19.646;2022-10-16T00:11:37;100073.82;;;14.49;67.97
70338;BME280;57757;53.198;19.646;2022-10-16T00:14:10;100075.72;;;14.50;67.97
70338;BME280;57757;53.198;19.646;2022-10-16T00:16:38;100074.70;;;14.49;68.06
70338;BME280;57757;53.198;19.646;2022-10-16T00:19:06;100066.81;;;14.49;67.99
70338;BME280;57757;53.198;19.646;2022-10-16T00:21:34;100066.64;;;14.49;68.01
70338;BME280;57757;53.198;19.646;2022-10-16T00:24:08;100067.67;;;14.50;67.88
70338;BME280;57757;53.198;19.646;2022-10-16T00:26:38;100065.83;;;14.48;67.93
70338;BME280;57757;53.198;19.646;2022-10-16T00:29:06;100069.39;;;14.46;67.98
70338;BME280;57757;53.198;19.646;2022-10-16T00:31:34;100074.02;;;14.45;67.98
70338;BME280;57757;53.198;19.646;2022-10-16T00:34:02;100076.37;;;14.43;68.01
70338;BME280;57757;53.198;19.646;2022-10-16T00:36:30;100075.65;;;14.43;68.02
70338;BME280;57757;53.198;19.646;2022-10-16T00:38:59;100076.80;;;14.45;68.00
70338;BME280;57757;53.198;19.646;2022-10-16T00:41:28;100078.68;;;14.46;68.14
70338;BME280;57757;53.198;19.646;2022-10-16T00:43:57;100078.86;;;14.46;68.03
70338;BME280;57757;53.198;19.646;2022-10-16T00:46:37;100081.84;;;14.46;68.11
70338;BME280;57757;53.198;19.646;2022-10-16T00:49:09;100088.23;;;14.44;68.11
70338;BME280;57757;53.198;19.646;2022-10-16T00:51:47;100089.66;;;14.43;68.00
70338;BME280;57757;53.198;19.646;2022-10-16T00:54:23;100092.27;;;14.43;68.02
70338;BME280;57757;53.198;19.646;2022-10-16T00:56:53;100087.41;;;14.42;68.04
70338;BME280;57757;53.198;19.646;2022-10-16T00:59:33;100088.23;;;14.40;68.06
70338;BME280;57757;53.198;19.646;2022-10-16T01:02:03;100091.08;;;14.38;68.09
70338;BME280;57757;53.198;19.646;2022-10-16T01:04:35;100094.66;;;14.36;68.21
70338;BME280;57757;53.198;19.646;2022-10-16T01:07:10;100099.70;;;14.37;68.25
70338;BME280;57757;53.198;19.646;2022-10-16T01:09:54;100100.89;;;14.38;68.07
70338;BME280;57757;53.198;19.646;2022-10-16T01:12:33;100102.98;;;14.38;68.21
70338;BME280;57757;53.198;19.646;2022-10-16T01:18:19;100101.71;;;14.29;68.12
70338;BME280;57757;53.198;19.646;2022-10-16T01:20:59;100101.60;;;14.28;68.22
70338;BME280;57757;53.198;19.646;2022-10-16T01:32:32;100101.01;;;14.30;68.39
70338;BME280;57757;53.198;19.646;2022-10-16T01:37:51;100106.56;;;14.30;68.42
70338;BME280;57757;53.198;19.646;2022-10-16T01:40:23;100106.18;;;14.31;68.48
70338;BME280;57757;53.198;19.646;2022-10-16T01:42:59;100105.29;;;14.32;68.51
70338;BME280;57757;53.198;19.646;2022-10-16T01:45:30;100104.91;;;14.33;68.43
70338;BME280;57757;53.198;19.646;2022-10-16T01:48:00;100106.11;;;14.33;68.55
70338;BME280;57757;53.198;19.646;2022-10-16T01:50:34;100102.77;;;14.33;68.47
70338;BME280;57757;53.198;19.646;2022-10-16T01:53:05;100103.41;;;14.36;68.56
70338;BME280;57757;53.198;19.646;2022-10-16T01:55:37;100100.19;;;14.38;68.48
70338;BME280;57757;53.198;19.646;2022-10-16T01:58:08;100102.42;;;14.39;68.48
70338;BME280;57757;53.198;19.646;2022-10-16T02:00:39;100103.50;;;14.38;68.45
70338;BME280;57757;53.198;19.646;2022-10-16T02:03:11;100102.10;;;14.33;68.38
70338;BME280;57757;53.198;19.646;2022-10-16T02:05:46;100106.41;;;14.30;68.40
70338;BME280;57757;53.198;19.646;2022-10-16T02:08:17;100104.98;;;14.26;68.32
70338;BME280;57757;53.198;19.646;2022-10-16T02:10:45;100098.50;;;14.22;68.28
70338;BME280;57757;53.198;19.646;2022-10-16T02:13:17;100097.86;;;14.21;68.46
70338;BME280;57757;53.198;19.646;2022-10-16T02:15:47;100096.57;;;14.18;68.37
70338;BME280;57757;53.198;19.646;2022-10-16T02:18:15;100101.91;;;14.16;68.45
70338;BME280;57757;53.198;19.646;2022-10-16T02:23:33;100102.98;;;14.15;68.48
70338;BME280;57757;53.198;19.646;2022-10-16T02:26:04;100108.02;;;14.16;68.51
70338;BME280;57757;53.198;19.646;2022-10-16T02:28:40;100112.60;;;14.15;68.60
70338;BME280;57757;53.198;19.646;2022-10-16T02:31:12;100109.20;;;14.13;68.51
70338;BME280;57757;53.198;19.646;2022-10-16T02:33:45;100113.13;;;14.11;68.67
70338;BME280;57757;53.198;19.646;2022-10-16T02:36:13;100115.11;;;14.09;68.63
70338;BME280;57757;53.198;19.646;2022-10-16T02:38:41;100112.91;;;14.07;68.54
70338;BME280;57757;53.198;19.646;2022-10-16T02:41:09;100112.14;;;14.05;68.58
70338;BME280;57757;53.198;19.646;2022-10-16T02:43:37;100114.39;;;14.01;68.45
70338;BME280;57757;53.198;19.646;2022-10-16T02:46:05;100119.52;;;13.95;68.51
70338;BME280;57757;53.198;19.646;2022-10-16T02:48:33;100120.45;;;13.88;68.54
70338;BME280;57757;53.198;19.646;2022-10-16T02:51:02;100123.32;;;13.82;68.58
70338;BME280;57757;53.198;19.646;2022-10-16T02:53:30;100123.26;;;13.74;68.51
70338;BME280;57757;53.198;19.646;2022-10-16T02:55:57;100119.04;;;13.66;68.48
70338;BME280;57757;53.198;19.646;2022-10-16T02:58:25;100117.73;;;13.58;68.53
70338;BME280;57757;53.198;19.646;2022-10-16T03:00:52;100116.14;;;13.54;68.78
70338;BME280;57757;53.198;19.646;2022-10-16T03:03:20;100117.36;;;13.50;68.86
70338;BME280;57757;53.198;19.646;2022-10-16T03:05:48;100115.10;;;13.45;68.83
70338;BME280;57757;53.198;19.646;2022-10-16T03:08:15;100114.46;;;13.38;68.76
70338;BME280;57757;53.198;19.646;2022-10-16T03:10:43;100110.98;;;13.33;68.91
70338;BME280;57757;53.198;19.646;2022-10-16T03:13:11;100115.99;;;13.30;68.92
70338;BME280;57757;53.198;19.646;2022-10-16T03:15:38;100117.98;;;13.23;68.84
70338;BME280;57757;53.198;19.646;2022-10-16T03:18:06;100110.70;;;13.16;69.02
70338;BME280;57757;53.198;19.646;2022-10-16T03:20:34;100118.07;;;13.11;68.88
70338;BME280;57757;53.198;19.646;2022-10-16T03:23:01;100113.73;;;13.04;68.92
70338;BME280;57757;53.198;19.646;2022-10-16T03:25:29;100117.41;;;12.99;68.92
70338;BME280;57757;53.198;19.646;2022-10-16T03:27:57;100112.97;;;12.96;68.95
70338;BME280;57757;53.198;19.646;2022-10-16T03:30:25;100118.63;;;12.93;69.21
70338;BME280;57757;53.198;19.646;2022-10-16T03:32:52;100125.58;;;12.89;69.15
70338;BME280;57757;53.198;19.646;2022-10-16T03:35:22;100122.24;;;12.84;69.07
70338;BME280;57757;53.198;19.646;2022-10-16T03:37:50;100124.44;;;12.81;69.17
70338;BME280;57757;53.198;19.646;2022-10-16T03:40:18;100127.45;;;12.80;69.27
70338;BME280;57757;53.198;19.646;2022-10-16T03:42:46;100120.52;;;12.79;69.28
70338;BME280;57757;53.198;19.646;2022-10-16T03:45:14;100126.27;;;12.79;69.31
70338;BME280;57757;53.198;19.646;2022-10-16T03:47:41;100125.77;;;12.78;69.47
70338;BME280;57757;53.198;19.646;2022-10-16T03:50:09;100132.38;;;12.74;69.43
70338;BME280;57757;53.198;19.646;2022-10-16T03:52:36;100132.85;;;12.70;69.26
70338;BME280;57757;53.198;19.646;2022-10-16T03:55:04;100139.63;;;12.71;69.47
70338;BME280;57757;53.198;19.646;2022-10-16T03:57:32;100146.52;;;12.73;69.56
70338;BME280;57757;53.198;19.646;2022-10-16T03:59:59;100142.47;;;12.75;69.40
70338;BME280;57757;53.198;19.646;2022-10-16T04:02:27;100144.16;;;12.76;69.51
70338;BME280;57757;53.198;19.646;2022-10-16T04:04:55;100148.30;;;12.78;69.55
70338;BME280;57757;53.198;19.646;2022-10-16T04:07:22;100152.27;;;12.79;69.53
70338;BME280;57757;53.198;19.646;2022-10-16T04:09:50;100145.89;;;12.82;69.59
70338;BME280;57757;53.198;19.646;2022-10-16T04:12:19;100145.59;;;12.86;69.63
70338;BME280;57757;53.198;19.646;2022-10-16T04:14:47;100147.94;;;12.88;69.61
70338;BME280;57757;53.198;19.646;2022-10-16T04:17:14;100148.21;;;12.91;69.64
70338;BME280;57757;53.198;19.646;2022-10-16T04:19:42;100152.64;;;12.94;69.64
70338;BME280;57757;53.198;19.646;2022-10-16T04:22:10;100157.09;;;12.97;69.60
70338;BME280;57757;53.198;19.646;2022-10-16T04:24:37;100161.55;;;12.99;69.58
70338;BME280;57757;53.198;19.646;2022-10-16T04:27:05;100159.88;;;13.02;69.75
70338;BME280;57757;53.198;19.646;2022-10-16T04:29:32;100164.33;;;13.05;69.62
70338;BME280;57757;53.198;19.646;2022-10-16T04:32:00;100161.52;;;13.05;69.60
70338;BME280;57757;53.198;19.646;2022-10-16T04:34:27;100165.11;;;13.07;69.77
70338;BME280;57757;53.198;19.646;2022-10-16T04:36:55;100163.30;;;13.10;69.60
70338;BME280;57757;53.198;19.646;2022-10-16T04:39:23;100157.28;;;13.13;69.72
70338;BME280;57757;53.198;19.646;2022-10-16T04:41:50;100158.80;;;13.14;69.65
70338;BME280;57757;53.198;19.646;2022-10-16T04:44:18;100156.34;;;13.14;69.64
70338;BME280;57757;53.198;19.646;2022-10-16T04:46:45;100157.20;;;13.15;69.74
70338;BME280;57757;53.198;19.646;2022-10-16T04:49:13;100153.81;;;13.17;69.60
70338;BME280;57757;53.198;19.646;2022-10-16T04:51:40;100154.60;;;13.19;69.65
70338;BME280;57757;53.198;19.646;2022-10-16T04:54:09;100151.23;;;13.21;69.68
70338;BME280;57757;53.198;19.646;2022-10-16T04:56:37;100148.04;;;13.22;69.69
70338;BME280;57757;53.198;19.646;2022-10-16T04:59:10;100142.77;;;13.23;69.74
70338;BME280;57757;53.198;19.646;2022-10-16T05:01:38;100140.81;;;13.24;69.66
70338;BME280;57757;53.198;19.646;2022-10-16T05:04:06;100142.17;;;13.26;69.60
70338;BME280;57757;53.198;19.646;2022-10-16T05:06:33;100134.41;;;13.27;69.68
70338;BME280;57757;53.198;19.646;2022-10-16T05:09:01;100138.91;;;13.29;69.64
70338;BME280;57757;53.198;19.646;2022-10-16T05:11:28;100145.48;;;13.30;69.76
70338;BME280;57757;53.198;19.646;2022-10-16T05:13:56;100147.35;;;13.32;69.70
70338;BME280;57757;53.198;19.646;2022-10-16T05:16:23;100148.77;;;13.30;69.74
70338;BME280;57757;53.198;19.646;2022-10-16T05:18:51;100144.08;;;13.31;69.69
70338;BME280;57757;53.198;19.646;2022-10-16T05:21:30;100144.04;;;13.32;69.61
70338;BME280;57757;53.198;19.646;2022-10-16T05:23:58;100163.54;;;13.33;69.58
70338;BME280;57757;53.198;19.646;2022-10-16T05:26:26;100167.33;;;13.35;69.71
70338;BME280;57757;53.198;19.646;2022-10-16T05:28:53;100161.56;;;13.35;69.58
70338;BME280;57757;53.198;19.646;2022-10-16T05:31:21;100164.13;;;13.37;69.69
70338;BME280;57757;53.198;19.646;2022-10-16T05:33:49;100165.13;;;13.38;69.63
70338;BME280;57757;53.198;19.646;2022-10-16T05:36:16;100173.96;;;13.40;69.60
70338;BME280;57757;53.198;19.646;2022-10-16T05:38:45;100174.59;;;13.42;69.65
70338;BME280;57757;53.198;19.646;2022-10-16T05:41:13;100172.82;;;13.43;69.54
70338;BME280;57757;53.198;19.646;2022-10-16T05:43:41;100176.27;;;13.44;69.56
70338;BME280;57757;53.198;19.646;2022-10-16T05:46:08;100183.88;;;13.46;69.76
70338;BME280;57757;53.198;19.646;2022-10-16T05:48:36;100182.20;;;13.49;69.49
70338;BME280;57757;53.198;19.646;2022-10-16T05:51:06;100183.66;;;13.52;69.56
70338;BME280;57757;53.198;19.646;2022-10-16T05:53:36;100183.15;;;13.57;69.72
70338;BME280;57757;53.198;19.646;2022-10-16T05:56:06;100189.48;;;13.61;69.75
70338;BME280;57757;53.198;19.646;2022-10-16T05:58:36;100186.09;;;13.62;69.69
70338;BME280;57757;53.198;19.646;2022-10-16T06:03:39;100191.07;;;13.70;69.64
70338;BME280;57757;53.198;19.646;2022-10-16T06:06:13;100185.68;;;13.73;69.64
70338;BME280;57757;53.198;19.646;2022-10-16T06:08:42;100180.85;;;13.77;69.59
70338;BME280;57757;53.198;19.646;2022-10-16T06:11:12;100186.68;;;13.79;69.74
70338;BME280;57757;53.198;19.646;2022-10-16T06:13:41;100190.98;;;13.81;69.60
70338;BME280;57757;53.198;19.646;2022-10-16T06:16:10;100194.08;;;13.83;69.47
70338;BME280;57757;53.198;19.646;2022-10-16T06:18:38;100203.35;;;13.87;69.54
70338;BME280;57757;53.198;19.646;2022-10-16T06:21:10;100207.85;;;13.94;69.62
70338;BME280;57757;53.198;19.646;2022-10-16T06:23:38;100214.52;;;14.02;69.86
70338;BME280;57757;53.198;19.646;2022-10-16T06:26:12;100227.20;;;14.09;69.58
70338;BME280;57757;53.198;19.646;2022-10-16T06:28:41;100229.84;;;14.13;69.61
70338;BME280;57757;53.198;19.646;2022-10-16T06:31:10;100235.45;;;14.17;69.43
70338;BME280;57757;53.198;19.646;2022-10-16T06:33:38;100234.31;;;14.20;69.32
70338;BME280;57757;53.198;19.646;2022-10-16T06:36:11;100234.56;;;14.23;69.36
70338;BME280;57757;53.198;19.646;2022-10-16T06:38:40;100235.56;;;14.24;69.36
70338;BME280;57757;53.198;19.646;2022-10-16T06:41:18;100229.02;;;14.26;69.42
70338;BME280;57757;53.198;19.646;2022-10-16T06:43:47;100223.92;;;14.31;69.39
70338;BME280;57757;53.198;19.646;2022-10-16T06:46:17;100224.08;;;14.37;69.38
70338;BME280;57757;53.198;19.646;2022-10-16T06:48:46;100225.77;;;14.43;69.38
70338;BME280;57757;53.198;19.646;2022-10-16T06:51:16;100223.05;;;14.50;69.39
70338;BME280;57757;53.198;19.646;2022-10-16T06:53:48;100218.02;;;14.53;69.32
70338;BME280;57757;53.198;19.646;2022-10-16T06:56:33;100220.48;;;14.57;69.34
70338;BME280;57757;53.198;19.646;2022-10-16T06:59:02;100229.10;;;14.61;69.31
70338;BME280;57757;53.198;19.646;2022-10-16T07:01:30;100236.52;;;14.63;69.21
70338;BME280;57757;53.198;19.646;2022-10-16T07:03:58;100234.15;;;14.66;69.13
70338;BME280;57757;53.198;19.646;2022-10-16T07:06:26;100230.71;;;14.68;69.11
70338;BME280;57757;53.198;19.646;2022-10-16T07:08:55;100229.05;;;14.70;69.11
70338;BME280;57757;53.198;19.646;2022-10-16T07:11:23;100224.16;;;14.75;69.31
70338;BME280;57757;53.198;19.646;2022-10-16T07:13:52;100227.65;;;14.79;69.14
70338;BME280;57757;53.198;19.646;2022-10-16T07:16:26;100232.63;;;14.86;69.22
70338;BME280;57757;53.198;19.646;2022-10-16T07:18:55;100238.63;;;14.94;69.22
70338;BME280;57757;53.198;19.646;2022-10-16T07:21:29;100245.45;;;15.02;69.28
70338;BME280;57757;53.198;19.646;2022-10-16T07:23:59;100249.96;;;15.12;69.35
70338;BME280;57757;53.198;19.646;2022-10-16T07:26:31;100250.80;;;15.25;69.40
70338;BME280;57757;53.198;19.646;2022-10-16T07:29:00;100251.70;;;15.38;69.23
70338;BME280;57757;53.198;19.646;2022-10-16T07:31:28;100246.83;;;15.45;69.03
70338;BME280;57757;53.198;19.646;2022-10-16T07:33:58;100246.98;;;15.50;68.93
70338;BME280;57757;53.198;19.646;2022-10-16T07:36:25;100244.48;;;15.52;68.86
70338;BME280;57757;53.198;19.646;2022-10-16T07:38:53;100249.52;;;15.52;68.84
70338;BME280;57757;53.198;19.646;2022-10-16T07:41:27;100246.33;;;15.53;68.74
70338;BME280;57757;53.198;19.646;2022-10-16T07:43:56;100254.96;;;15.56;68.84
70338;BME280;57757;53.198;19.646;2022-10-16T07:46:28;100260.39;;;15.60;68.71
70338;BME280;57757;53.198;19.646;2022-10-16T07:49:40;100271.52;;;15.66;68.68
70338;BME280;57757;53.198;19.646;2022-10-16T07:52:08;100270.06;;;15.71;68.79
70338;BME280;57757;53.198;19.646;2022-10-16T07:54:43;100272.85;;;15.76;68.78
70338;BME280;57757;53.198;19.646;2022-10-16T07:59:01;100276.88;;;15.85;68.62
70338;BME280;57757;53.198;19.646;2022-10-16T08:01:58;100275.64;;;15.85;68.52
70338;BME280;57757;53.198;19.646;2022-10-16T08:04:58;100274.77;;;15.85;68.56
70338;BME280;57757;53.198;19.646;2022-10-16T08:12:52;100284.89;;;15.90;68.61
70338;BME280;57757;53.198;19.646;2022-10-16T08:15:22;100290.73;;;15.97;68.63
70338;BME280;57757;53.198;19.646;2022-10-16T08:18:06;100292.89;;;15.99;68.45
70338;BME280;57757;53.198;19.646;2022-10-16T08:20:36;100295.60;;;15.98;68.54
70338;BME280;57757;53.198;19.646;2022-10-16T08:23:20;100300.23;;;15.96;68.41
70338;BME280;57757;53.198;19.646;2022-10-16T08:25:48;100302.13;;;15.97;68.34
70338;BME280;57757;53.198;19.646;2022-10-16T08:28:20;100294.73;;;15.98;68.33
70338;BME280;57757;53.198;19.646;2022-10-16T08:30:53;100281.50;;;15.99;68.29
70338;BME280;57757;53.198;19.646;2022-10-16T08:37:31;100295.32;;;16.00;68.33
70338;BME280;57757;53.198;19.646;2022-10-16T08:39:59;100295.13;;;16.00;68.51
70338;BME280;57757;53.198;19.646;2022-10-16T08:45:32;100305.45;;;16.05;68.36
70338;BME280;57757;53.198;19.646;2022-10-16T08:50:44;100312.04;;;15.95;68.35
70338;BME280;57757;53.198;19.646;2022-10-16T09:07:01;100316.30;;;16.68;67.76
70338;BME280;57757;53.198;19.646;2022-10-16T09:09:53;100320.61;;;16.73;68.01
70338;BME280;57757;53.198;19.646;2022-10-16T09:18:25;100312.21;;;17.13;68.53
70338;BME280;57757;53.198;19.646;2022-10-16T09:23:37;100301.08;;;17.53;68.26
70338;BME280;57757;53.198;19.646;2022-10-16T09:26:09;100303.17;;;17.65;68.20
70338;BME280;57757;53.198;19.646;2022-10-16T09:28:37;100305.20;;;17.74;68.12
70338;BME280;57757;53.198;19.646;2022-10-16T09:31:15;100304.15;;;17.83;68.05
70338;BME280;57757;53.198;19.646;2022-10-16T09:33:53;100306.05;;;17.94;68.01
70338;BME280;57757;53.198;19.646;2022-10-16T09:36:24;100308.89;;;18.04;67.91
70338;BME280;57757;53.198;19.646;2022-10-16T09:39:10;100315.16;;;18.15;67.88
70338;BME280;57757;53.198;19.646;2022-10-16T09:41:42;100310.19;;;18.32;67.83
70338;BME280;57757;53.198;19.646;2022-10-16T09:44:28;100299.48;;;18.61;68.18
70338;BME280;57757;53.198;19.646;2022-10-16T09:47:02;100297.75;;;19.02;68.23
70338;BME280;57757;53.198;19.646;2022-10-16T09:49:30;100300.15;;;19.31;67.77
70338;BME280;57757;53.198;19.646;2022-10-16T09:52:11;100298.88;;;19.37;67.32
70338;BME280;57757;53.198;19.646;2022-10-16T09:54:53;100297.65;;;19.37;66.92
70338;BME280;57757;53.198;19.646;2022-10-16T09:57:23;100306.23;;;19.45;66.90
70338;BME280;57757;53.198;19.646;2022-10-16T09:59:57;100311.23;;;19.68;67.07
70338;BME280;57757;53.198;19.646;2022-10-16T10:02:31;100317.13;;;19.78;66.74
70338;BME280;57757;53.198;19.646;2022-10-16T10:05:01;100322.70;;;19.74;66.48
70338;BME280;57757;53.198;19.646;2022-10-16T10:07:37;100320.05;;;19.65;66.29
70338;BME280;57757;53.198;19.646;2022-10-16T10:10:20;100311.75;;;19.53;66.01
70338;BME280;57757;53.198;19.646;2022-10-16T10:12:54;100306.55;;;19.39;66.12
70338;BME280;57757;53.198;19.646;2022-10-16T10:15:23;100308.21;;;19.28;66.15
70338;BME280;57757;53.198;19.646;2022-10-16T10:17:56;100312.17;;;19.18;66.07
70338;BME280;57757;53.198;19.646;2022-10-16T10:23:25;100310.95;;;19.27;66.35
70338;BME280;57757;53.198;19.646;2022-10-16T10:26:35;100312.28;;;19.37;66.44
70338;BME280;57757;53.198;19.646;2022-10-16T10:29:04;100313.30;;;19.50;66.46
70338;BME280;57757;53.198;19.646;2022-10-16T10:31:38;100309.80;;;19.62;66.37
70338;BME280;57757;53.198;19.646;2022-10-16T10:37:08;100308.65;;;19.76;66.02
70338;BME280;57757;53.198;19.646;2022-10-16T10:42:48;100309.55;;;19.73;65.93
70338;BME280;57757;53.198;19.646;2022-10-16T10:45:41;100310.49;;;19.74;65.78
70338;BME280;57757;53.198;19.646;2022-10-16T10:51:22;100309.73;;;20.02;66.17
70338;BME280;57757;53.198;19.646;2022-10-16T10:53:55;100314.18;;;20.16;65.80
70338;BME280;57757;53.198;19.646;2022-10-16T10:59:38;100312.64;;;20.12;65.37
70338;BME280;57757;53.198;19.646;2022-10-16T11:02:18;100321.64;;;20.00;65.21
70338;BME280;57757;53.198;19.646;2022-10-16T11:08:06;100312.02;;;19.82;65.30
70338;BME280;57757;53.198;19.646;2022-10-16T11:13:33;100307.41;;;19.96;65.46
70338;BME280;57757;53.198;19.646;2022-10-16T11:16:28;100308.05;;;20.09;65.48
70338;BME280;57757;53.198;19.646;2022-10-16T11:19:21;100304.75;;;20.23;65.48
70338;BME280;57757;53.198;19.646;2022-10-16T11:22:04;100306.23;;;20.30;65.31
70338;BME280;57757;53.198;19.646;2022-10-16T11:24:42;100305.02;;;20.33;65.22
70338;BME280;57757;53.198;19.646;2022-10-16T11:27:22;100306.80;;;20.32;65.13
70338;BME280;57757;53.198;19.646;2022-10-16T11:30:00;100301.32;;;20.30;64.81
70338;BME280;57757;53.198;19.646;2022-10-16T11:35:24;100309.16;;;20.54;65.16
70338;BME280;57757;53.198;19.646;2022-10-16T11:37:53;100313.64;;;20.75;65.14
70338;BME280;57757;53.198;19.646;2022-10-16T11:40:29;100307.43;;;20.78;64.57
70338;BME280;57757;53.198;19.646;2022-10-16T11:45:52;100307.31;;;21.02;64.76
70338;BME280;57757;53.198;19.646;2022-10-16T11:48:27;100306.82;;;21.13;64.38
70338;BME280;57757;53.198;19.646;2022-10-16T11:51:15;100314.98;;;21.16;64.33
70338;BME280;57757;53.198;19.646;2022-10-16T11:54:08;100315.70;;;21.13;64.02
70338;BME280;57757;53.198;19.646;2022-10-16T11:56:46;100314.28;;;21.04;63.75
70338;BME280;57757;53.198;19.646;2022-10-16T11:59:39;100315.88;;;20.96;63.73
70338;BME280;57757;53.198;19.646;2022-10-16T12:05:18;100325.73;;;20.72;63.58
70338;BME280;57757;53.198;19.646;2022-10-16T12:08:10;100324.42;;;20.59;63.53
70338;BME280;57757;53.198;19.646;2022-10-16T12:10:41;100327.35;;;20.51;63.52
70338;BME280;57757;53.198;19.646;2022-10-16T12:13:37;100331.79;;;20.40;63.27
70338;BME280;57757;53.198;19.646;2022-10-16T12:18:41;100339.27;;;20.04;63.28
70338;BME280;57757;53.198;19.646;2022-10-16T12:21:10;100337.25;;;19.90;63.45
70338;BME280;57757;53.198;19.646;2022-10-16T12:23:50;100334.96;;;19.81;63.45
70338;BME280;57757;53.198;19.646;2022-10-16T12:26:37;100337.74;;;19.76;63.58
70338;BME280;57757;53.198;19.646;2022-10-16T12:29:19;100338.09;;;19.71;63.68
70338;BME280;57757;53.198;19.646;2022-10-16T12:31:53;100335.71;;;19.63;63.63
70338;BME280;57757;53.198;19.646;2022-10-16T12:34:43;100332.14;;;19.51;63.61
70338;BME280;57757;53.198;19.646;2022-10-16T12:37:23;100337.88;;;19.37;63.57
70338;BME280;57757;53.198;19.646;2022-10-16T12:39:53;100340.77;;;19.23;63.58
70338;BME280;57757;53.198;19.646;2022-10-16T12:44:56;100349.51;;;19.03;63.67
70338;BME280;57757;53.198;19.646;2022-10-16T12:47:37;100346.98;;;18.98;63.93
70338;BME280;57757;53.198;19.646;2022-10-16T12:52:59;100327.06;;;19.01;64.31
70338;BME280;57757;53.198;19.646;2022-10-16T12:55:41;100328.37;;;19.09;64.25
70338;BME280;57757;53.198;19.646;2022-10-16T13:15:52;100352.14;;;19.31;64.17
70338;BME280;57757;53.198;19.646;2022-10-16T13:18:33;100349.13;;;19.35;63.98
70338;BME280;57757;53.198;19.646;2022-10-16T13:30:02;100360.62;;;19.40;64.01
70338;BME280;57757;53.198;19.646;2022-10-16T13:32:38;100368.23;;;19.33;63.89
70338;BME280;57757;53.198;19.646;2022-10-16T13:35:24;100368.04;;;19.24;63.91
70338;BME280;57757;53.198;19.646;2022-10-16T13:38:16;100363.96;;;19.16;63.87
70338;BME280;57757;53.198;19.646;2022-10-16T13:41:04;100364.77;;;19.10;63.87
70338;BME280;57757;53.198;19.646;2022-10-16T13:43:59;100373.79;;;19.03;63.97
70338;BME280;57757;53.198;19.646;2022-10-16T13:46:28;100368.33;;;18.97;63.92
70338;BME280;57757;53.198;19.646;2022-10-16T13:52:01;100372.31;;;18.83;64.07
70338;BME280;57757;53.198;19.646;2022-10-16T13:54:31;100372.11;;;18.77;64.04
70338;BME280;57757;53.198;19.646;2022-10-16T13:57:27;100365.89;;;18.71;64.10
70338;BME280;57757;53.198;19.646;2022-10-16T13:59:55;100374.42;;;18.67;64.17
70338;BME280;57757;53.198;19.646;2022-10-16T14:02:34;100372.20;;;18.62;64.21
70338;BME280;57757;53.198;19.646;2022-10-16T14:05:09;100376.39;;;18.56;64.27
70338;BME280;57757;53.198;19.646;2022-10-16T14:07:50;100380.13;;;18.52;64.27
70338;BME280;57757;53.198;19.646;2022-10-16T14:10:53;100381.14;;;18.49;64.35
70338;BME280;57757;53.198;19.646;2022-10-16T14:13:38;100383.89;;;18.47;64.38
70338;BME280;57757;53.198;19.646;2022-10-16T14:16:32;100389.29;;;18.44;64.34
70338;BME280;57757;53.198;19.646;2022-10-16T14:19:04;100396.02;;;18.40;64.43
70338;BME280;57757;53.198;19.646;2022-10-16T14:21:40;100407.86;;;18.37;64.47
70338;BME280;57757;53.198;19.646;2022-10-16T14:24:49;100411.62;;;18.32;64.49
70338;BME280;57757;53.198;19.646;2022-10-16T14:27:34;100417.93;;;18.29;64.60
70338;BME280;57757;53.198;19.646;2022-10-16T14:30:20;100413.73;;;18.28;64.65
70338;BME280;57757;53.198;19.646;2022-10-16T14:33:18;100418.34;;;18.28;64.67
70338;BME280;57757;53.198;19.646;2022-10-16T14:36:03;100425.91;;;18.28;64.70
70338;BME280;57757;53.198;19.646;2022-10-16T14:38:32;100430.70;;;18.27;64.73
70338;BME280;57757;53.198;19.646;2022-10-16T14:41:01;100428.83;;;18.26;64.77
70338;BME280;57757;53.198;19.646;2022-10-16T14:43:34;100427.52;;;18.24;64.78
70338;BME280;57757;53.198;19.646;2022-10-16T14:46:17;100434.16;;;18.21;64.80
70338;BME280;57757;53.198;19.646;2022-10-16T14:48:50;100436.92;;;18.19;64.77
70338;BME280;57757;53.198;19.646;2022-10-16T14:51:19;100435.91;;;18.18;64.83
70338;BME280;57757;53.198;19.646;2022-10-16T14:53:47;100439.33;;;18.17;64.89
70338;BME280;57757;53.198;19.646;2022-10-16T14:56:18;100446.34;;;18.14;64.94
70338;BME280;57757;53.198;19.646;2022-10-16T14:58:48;100444.78;;;18.10;64.93
70338;BME280;57757;53.198;19.646;2022-10-16T15:01:18;100440.55;;;18.06;65.05
70338;BME280;57757;53.198;19.646;2022-10-16T15:03:47;100442.80;;;18.04;65.03
70338;BME280;57757;53.198;19.646;2022-10-16T15:06:15;100437.58;;;18.03;64.95
70338;BME280;57757;53.198;19.646;2022-10-16T15:08:43;100447.64;;;18.02;65.02
70338;BME280;57757;53.198;19.646;2022-10-16T15:11:16;100442.73;;;18.01;65.07
70338;BME280;57757;53.198;19.646;2022-10-16T15:13:45;100435.10;;;17.99;65.18
70338;BME280;57757;53.198;19.646;2022-10-16T15:16:16;100436.02;;;17.98;65.24
70338;BME280;57757;53.198;19.646;2022-10-16T15:18:44;100431.71;;;17.97;65.36